sensor_id;sensor_type;location;lat;lon;timestamp;pressure;altitude;pressure_sealevel;temperature;humidity
43804;BME280;29430;52.924;-2.388;2022-09-09T00:06:43;97992.88;;;14.66;93.05
43804;BME280;29430;52.924;-2.388;2022-09-09T00:16:35;97997.56;;;14.61;92.69
43804;BME280;29430;52.924;-2.388;2022-09-09T00:21:37;97995.38;;;14.58;93.85
43804;BME280;29430;52.924;-2.388;2022-09-09T00:31:32;98006.56;;;14.56;94.71
43804;BME280;29430;52.924;-2.388;2022-09-09T00:36:26;97991.63;;;14.54;95.87
43804;BME280;29430;52.924;-2.388;2022-09-09T00:56:59;97995.78;;;14.46;99.61
43804;BME280;29430;52.924;-2.388;2022-09-09T01:01:55;98004.47;;;14.48;99.52
43804;BME280;29430;52.924;-2.388;2022-09-09T01:06:50;98002.81;;;14.52;99.33
43804;BME280;29430;52.924;-2.388;2022-09-09T01:17:18;98005.50;;;14.57;98.67
43804;BME280;29430;52.924;-2.388;2022-09-09T01:22:25;98000.03;;;14.57;98.73
43804;BME280;29430;52.924;-2.388;2022-09-09T01:27:18;98009.31;;;14.56;98.40
43804;BME280;29430;52.924;-2.388;2022-09-09T01:33:03;98011.22;;;14.56;98.25
43804;BME280;29430;52.924;-2.388;2022-09-09T01:37:49;98015.31;;;14.58;98.83
43804;BME280;29430;52.924;-2.388;2022-09-09T01:42:41;98019.09;;;14.62;98.68
43804;BME280;29430;52.924;-2.388;2022-09-09T01:47:34;98020.69;;;14.68;98.56
43804;BME280;29430;52.924;-2.388;2022-09-09T01:52:25;98024.78;;;14.71;98.14
43804;BME280;29430;52.924;-2.388;2022-09-09T01:57:33;98024.72;;;14.76;98.41
43804;BME280;29430;52.924;-2.388;2022-09-09T02:07:48;98019.53;;;14.80;97.98
43804;BME280;29430;52.924;-2.388;2022-09-09T02:12:44;98013.47;;;14.83;97.88
43804;BME280;29430;52.924;-2.388;2022-09-09T02:17:38;98008.81;;;14.83;98.16
43804;BME280;29430;52.924;-2.388;2022-09-09T02:22:33;98017.78;;;14.89;98.16
43804;BME280;29430;52.924;-2.388;2022-09-09T02:27:27;98020.22;;;14.91;97.72
43804;BME280;29430;52.924;-2.388;2022-09-09T02:32:23;98015.56;;;14.91;97.51
43804;BME280;29430;52.924;-2.388;2022-09-09T02:37:19;98025.91;;;14.94;97.60
43804;BME280;29430;52.924;-2.388;2022-09-09T02:42:11;98021.84;;;14.92;97.07
43804;BME280;29430;52.924;-2.388;2022-09-09T02:57:37;98023.53;;;14.88;97.24
43804;BME280;29430;52.924;-2.388;2022-09-09T03:02:29;98027.66;;;14.85;97.23
43804;BME280;29430;52.924;-2.388;2022-09-09T03:07:21;98037.75;;;14.84;97.67
43804;BME280;29430;52.924;-2.388;2022-09-09T03:12:13;98033.41;;;14.83;97.92
43804;BME280;29430;52.924;-2.388;2022-09-09T03:17:05;98034.19;;;14.84;97.87
43804;BME280;29430;52.924;-2.388;2022-09-09T03:21:58;98038.63;;;14.80;97.63
43804;BME280;29430;52.924;-2.388;2022-09-09T03:26:49;98035.06;;;14.79;97.18
43804;BME280;29430;52.924;-2.388;2022-09-09T03:31:41;98034.53;;;14.77;97.50
43804;BME280;29430;52.924;-2.388;2022-09-09T03:36:34;98042.44;;;14.79;97.05
43804;BME280;29430;52.924;-2.388;2022-09-09T03:41:26;98038.06;;;14.78;96.99
43804;BME280;29430;52.924;-2.388;2022-09-09T03:46:19;98046.81;;;14.80;97.43
43804;BME280;29430;52.924;-2.388;2022-09-09T03:51:11;98047.91;;;14.79;97.22
43804;BME280;29430;52.924;-2.388;2022-09-09T03:56:03;98050.34;;;14.80;97.13
43804;BME280;29430;52.924;-2.388;2022-09-09T04:00:57;98053.88;;;14.81;97.13
43804;BME280;29430;52.924;-2.388;2022-09-09T04:05:49;98049.53;;;14.80;96.94
43804;BME280;29430;52.924;-2.388;2022-09-09T04:10:40;98054.72;;;14.81;96.82
43804;BME280;29430;52.924;-2.388;2022-09-09T04:15:33;98060.69;;;14.83;96.84
43804;BME280;29430;52.924;-2.388;2022-09-09T04:20:26;98061.22;;;14.85;96.51
43804;BME280;29430;52.924;-2.388;2022-09-09T04:25:18;98070.22;;;14.86;96.31
43804;BME280;29430;52.924;-2.388;2022-09-09T04:30:10;98061.22;;;14.85;96.54
43804;BME280;29430;52.924;-2.388;2022-09-09T04:35:03;98061.22;;;14.85;96.59
43804;BME280;29430;52.924;-2.388;2022-09-09T04:39:54;98067.50;;;14.86;96.30
43804;BME280;29430;52.924;-2.388;2022-09-09T04:44:46;98067.78;;;14.84;96.04
43804;BME280;29430;52.924;-2.388;2022-09-09T04:49:38;98061.22;;;14.85;96.57
43804;BME280;29430;52.924;-2.388;2022-09-09T04:54:30;98054.44;;;14.83;96.61
43804;BME280;29430;52.924;-2.388;2022-09-09T04:59:21;98064.50;;;14.82;97.03
43804;BME280;29430;52.924;-2.388;2022-09-09T05:04:13;98068.06;;;14.83;97.13
43804;BME280;29430;52.924;-2.388;2022-09-09T05:09:06;98080.13;;;14.77;97.31
43804;BME280;29430;52.924;-2.388;2022-09-09T05:13:58;98080.94;;;14.77;97.82
43804;BME280;29430;52.924;-2.388;2022-09-09T05:18:50;98081.75;;;14.78;97.93
43804;BME280;29430;52.924;-2.388;2022-09-09T05:23:42;98089.41;;;14.76;98.50
43804;BME280;29430;52.924;-2.388;2022-09-09T05:28:35;98089.13;;;14.77;97.94
43804;BME280;29430;52.924;-2.388;2022-09-09T05:33:28;98093.22;;;14.80;98.09
43804;BME280;29430;52.924;-2.388;2022-09-09T05:38:19;98090.47;;;14.80;97.91
43804;BME280;29430;52.924;-2.388;2022-09-09T05:43:16;98098.13;;;14.78;97.88
43804;BME280;29430;52.924;-2.388;2022-09-09T05:48:07;98099.75;;;14.79;98.14
43804;BME280;29430;52.924;-2.388;2022-09-09T05:52:59;98100.03;;;14.77;98.38
43804;BME280;29430;52.924;-2.388;2022-09-09T05:57:51;98106.31;;;14.78;98.52
43804;BME280;29430;52.924;-2.388;2022-09-09T06:02:43;98118.88;;;14.79;98.54
43804;BME280;29430;52.924;-2.388;2022-09-09T06:07:35;98117.22;;;14.78;99.10
43804;BME280;29430;52.924;-2.388;2022-09-09T06:12:27;98117.50;;;14.81;99.37
43804;BME280;29430;52.924;-2.388;2022-09-09T06:17:18;98126.19;;;14.83;99.76
43804;BME280;29430;52.924;-2.388;2022-09-09T06:22:10;98128.88;;;14.89;100.00
43804;BME280;29430;52.924;-2.388;2022-09-09T06:27:04;98125.59;;;14.92;99.98
43804;BME280;29430;52.924;-2.388;2022-09-09T06:31:56;98130.47;;;14.95;99.61
43804;BME280;29430;52.924;-2.388;2022-09-09T06:36:49;98147.13;;;14.98;99.42
43804;BME280;29430;52.924;-2.388;2022-09-09T06:41:41;98155.03;;;15.00;99.30
43804;BME280;29430;52.924;-2.388;2022-09-09T06:46:34;98156.91;;;14.99;99.36
43804;BME280;29430;52.924;-2.388;2022-09-09T06:51:32;98155.81;;;15.00;99.47
43804;BME280;29430;52.924;-2.388;2022-09-09T06:56:26;98164.81;;;15.06;99.59
43804;BME280;29430;52.924;-2.388;2022-09-09T07:01:21;98161.72;;;15.13;100.00
43804;BME280;29430;52.924;-2.388;2022-09-09T07:06:17;98172.03;;;15.21;99.54
43804;BME280;29430;52.924;-2.388;2022-09-09T07:11:09;98172.00;;;15.26;98.72
43804;BME280;29430;52.924;-2.388;2022-09-09T07:16:08;98192.66;;;15.37;97.66
43804;BME280;29430;52.924;-2.388;2022-09-09T07:21:01;98185.53;;;15.42;97.45
43804;BME280;29430;52.924;-2.388;2022-09-09T07:25:53;98182.69;;;15.52;97.55
43804;BME280;29430;52.924;-2.388;2022-09-09T07:31:00;98183.97;;;15.60;95.99
43804;BME280;29430;52.924;-2.388;2022-09-09T07:36:19;98192.59;;;15.72;96.23
43804;BME280;29430;52.924;-2.388;2022-09-09T07:41:20;98194.44;;;15.82;96.80
43804;BME280;29430;52.924;-2.388;2022-09-09T07:46:13;98196.41;;;16.00;96.69
43804;BME280;29430;52.924;-2.388;2022-09-09T07:51:11;98204.97;;;16.18;96.46
43804;BME280;29430;52.924;-2.388;2022-09-09T07:56:09;98214.84;;;16.38;95.58
43804;BME280;29430;52.924;-2.388;2022-09-09T08:01:06;98225.66;;;16.48;93.21
43804;BME280;29430;52.924;-2.388;2022-09-09T08:06:06;98218.72;;;16.56;92.26
43804;BME280;29430;52.924;-2.388;2022-09-09T08:11:13;98228.19;;;16.63;92.24
43804;BME280;29430;52.924;-2.388;2022-09-09T08:16:27;98227.31;;;16.68;90.90
43804;BME280;29430;52.924;-2.388;2022-09-09T08:21:21;98236.59;;;16.91;93.19
43804;BME280;29430;52.924;-2.388;2022-09-09T08:26:16;98235.03;;;17.23;90.19
43804;BME280;29430;52.924;-2.388;2022-09-09T08:31:17;98241.53;;;17.46;87.50
43804;BME280;29430;52.924;-2.388;2022-09-09T08:36:12;98240.56;;;17.70;86.03
43804;BME280;29430;52.924;-2.388;2022-09-09T08:46:12;98243.31;;;17.70;87.35
43804;BME280;29430;52.924;-2.388;2022-09-09T08:51:07;98253.88;;;18.10;84.86
43804;BME280;29430;52.924;-2.388;2022-09-09T08:56:04;98249.50;;;18.36;83.54
43804;BME280;29430;52.924;-2.388;2022-09-09T09:06:06;98261.69;;;18.44;81.52
43804;BME280;29430;52.924;-2.388;2022-09-09T09:11:04;98270.97;;;18.48;82.23
43804;BME280;29430;52.924;-2.388;2022-09-09T09:21:34;98289.75;;;18.41;81.48
43804;BME280;29430;52.924;-2.388;2022-09-09T09:26:32;98303.09;;;18.34;80.67
43804;BME280;29430;52.924;-2.388;2022-09-09T09:31:24;98300.03;;;18.21;81.34
43804;BME280;29430;52.924;-2.388;2022-09-09T09:36:19;98306.22;;;18.13;80.68
43804;BME280;29430;52.924;-2.388;2022-09-09T09:41:11;98315.03;;;18.10;82.02
43804;BME280;29430;52.924;-2.388;2022-09-09T09:46:19;98325.94;;;18.15;81.80
43804;BME280;29430;52.924;-2.388;2022-09-09T09:51:14;98329.69;;;18.19;81.38
43804;BME280;29430;52.924;-2.388;2022-09-09T09:56:10;98341.09;;;18.27;80.95
43804;BME280;29430;52.924;-2.388;2022-09-09T10:01:03;98346.00;;;18.43;79.93
43804;BME280;29430;52.924;-2.388;2022-09-09T10:05:56;98340.72;;;18.61;79.55
43804;BME280;29430;52.924;-2.388;2022-09-09T10:11:30;98345.59;;;18.64;78.80
43804;BME280;29430;52.924;-2.388;2022-09-09T10:16:43;98344.09;;;18.72;78.10
43804;BME280;29430;52.924;-2.388;2022-09-09T10:37:51;98367.16;;;19.40;75.39
43804;BME280;29430;52.924;-2.388;2022-09-09T10:42:47;98371.31;;;19.38;75.15
43804;BME280;29430;52.924;-2.388;2022-09-09T10:53:02;98375.34;;;19.54;73.25
43804;BME280;29430;52.924;-2.388;2022-09-09T10:58:02;98365.41;;;19.81;73.12
43804;BME280;29430;52.924;-2.388;2022-09-09T11:03:00;98374.22;;;20.14;71.18
43804;BME280;29430;52.924;-2.388;2022-09-09T11:08:00;98373.47;;;20.85;70.21
43804;BME280;29430;52.924;-2.388;2022-09-09T11:12:56;98369.56;;;21.70;65.47
43804;BME280;29430;52.924;-2.388;2022-09-09T11:17:53;98371.28;;;22.27;64.05
43804;BME280;29430;52.924;-2.388;2022-09-09T11:38:02;98384.75;;;22.29;61.06
43804;BME280;29430;52.924;-2.388;2022-09-09T11:43:19;98382.81;;;22.21;60.58
43804;BME280;29430;52.924;-2.388;2022-09-09T11:48:43;98383.31;;;22.23;61.65
43804;BME280;29430;52.924;-2.388;2022-09-09T11:59:00;98383.59;;;22.47;60.35
43804;BME280;29430;52.924;-2.388;2022-09-09T12:04:15;98382.47;;;22.87;61.50
43804;BME280;29430;52.924;-2.388;2022-09-09T12:14:23;98379.78;;;23.80;59.03
43804;BME280;29430;52.924;-2.388;2022-09-09T12:19:26;98381.97;;;23.74;55.11
43804;BME280;29430;52.924;-2.388;2022-09-09T12:24:37;98381.50;;;23.51;55.54
43804;BME280;29430;52.924;-2.388;2022-09-09T12:29:56;98390.09;;;23.29;55.75
43804;BME280;29430;52.924;-2.388;2022-09-09T12:34:59;98390.59;;;22.92;56.42
43804;BME280;29430;52.924;-2.388;2022-09-09T12:39:56;98398.44;;;22.81;56.92
43804;BME280;29430;52.924;-2.388;2022-09-09T12:44:58;98394.41;;;22.79;54.76
43804;BME280;29430;52.924;-2.388;2022-09-09T12:49:50;98398.84;;;22.62;56.33
43804;BME280;29430;52.924;-2.388;2022-09-09T12:54:44;98411.69;;;22.58;56.80
43804;BME280;29430;52.924;-2.388;2022-09-09T12:59:43;98399.34;;;22.56;58.75
43804;BME280;29430;52.924;-2.388;2022-09-09T13:04:39;98398.16;;;22.74;58.96
43804;BME280;29430;52.924;-2.388;2022-09-09T13:09:31;98405.03;;;22.98;57.27
43804;BME280;29430;52.924;-2.388;2022-09-09T13:14:30;98412.59;;;23.18;57.29
43804;BME280;29430;52.924;-2.388;2022-09-09T13:19:24;98428.94;;;23.11;57.95
43804;BME280;29430;52.924;-2.388;2022-09-09T13:24:32;98422.16;;;22.91;59.56
43804;BME280;29430;52.924;-2.388;2022-09-09T13:29:24;98422.44;;;22.98;58.39
43804;BME280;29430;52.924;-2.388;2022-09-09T13:34:31;98425.53;;;22.97;59.96
43804;BME280;29430;52.924;-2.388;2022-09-09T13:39:22;98430.94;;;22.84;62.27
43804;BME280;29430;52.924;-2.388;2022-09-09T13:44:21;98443.72;;;22.50;63.78
43804;BME280;29430;52.924;-2.388;2022-09-09T13:54:09;98444.63;;;21.32;64.47
43804;BME280;29430;52.924;-2.388;2022-09-09T13:59:02;98450.13;;;20.83;65.71
43804;BME280;29430;52.924;-2.388;2022-09-09T14:03:54;98451.34;;;20.46;66.97
43804;BME280;29430;52.924;-2.388;2022-09-09T14:13:38;98466.63;;;20.07;69.98
43804;BME280;29430;52.924;-2.388;2022-09-09T14:18:29;98469.00;;;19.99;71.37
43804;BME280;29430;52.924;-2.388;2022-09-09T14:23:21;98478.34;;;19.98;72.49
43804;BME280;29430;52.924;-2.388;2022-09-09T14:28:14;98481.69;;;19.87;73.06
43804;BME280;29430;52.924;-2.388;2022-09-09T14:33:07;98496.84;;;19.84;74.67
43804;BME280;29430;52.924;-2.388;2022-09-09T14:37:59;98488.91;;;19.68;74.19
43804;BME280;29430;52.924;-2.388;2022-09-09T14:42:53;98484.84;;;19.52;75.68
43804;BME280;29430;52.924;-2.388;2022-09-09T14:47:45;98495.34;;;19.50;76.85
43804;BME280;29430;52.924;-2.388;2022-09-09T14:52:36;98494.75;;;19.39;76.60
43804;BME280;29430;52.924;-2.388;2022-09-09T14:57:28;98484.16;;;19.32;77.17
43804;BME280;29430;52.924;-2.388;2022-09-09T15:02:20;98486.81;;;19.24;78.19
43804;BME280;29430;52.924;-2.388;2022-09-09T15:07:11;98489.56;;;19.38;78.95
43804;BME280;29430;52.924;-2.388;2022-09-09T15:12:03;98479.78;;;19.45;77.92
43804;BME280;29430;52.924;-2.388;2022-09-09T15:16:56;98489.34;;;19.48;77.39
43804;BME280;29430;52.924;-2.388;2022-09-09T15:21:47;98486.69;;;19.57;76.98
43804;BME280;29430;52.924;-2.388;2022-09-09T15:26:39;98489.03;;;19.63;77.08
43804;BME280;29430;52.924;-2.388;2022-09-09T15:31:31;98495.94;;;19.75;76.47
43804;BME280;29430;52.924;-2.388;2022-09-09T15:36:25;98499.00;;;19.87;76.57
43804;BME280;29430;52.924;-2.388;2022-09-09T15:41:19;98509.66;;;20.02;74.91
43804;BME280;29430;52.924;-2.388;2022-09-09T15:56:21;98514.31;;;20.38;70.36
43804;BME280;29430;52.924;-2.388;2022-09-09T16:01:13;98521.06;;;20.32;68.55
43804;BME280;29430;52.924;-2.388;2022-09-09T16:06:05;98519.06;;;20.24;68.53
43804;BME280;29430;52.924;-2.388;2022-09-09T16:11:13;98523.56;;;20.20;67.76
43804;BME280;29430;52.924;-2.388;2022-09-09T16:16:06;98535.78;;;20.28;67.47
43804;BME280;29430;52.924;-2.388;2022-09-09T16:20:58;98545.22;;;20.35;67.12
43804;BME280;29430;52.924;-2.388;2022-09-09T16:25:54;98557.41;;;20.34;66.41
43804;BME280;29430;52.924;-2.388;2022-09-09T16:30:46;98563.38;;;20.00;67.85
43804;BME280;29430;52.924;-2.388;2022-09-09T16:35:38;98558.91;;;19.48;68.92
43804;BME280;29430;52.924;-2.388;2022-09-09T16:40:30;98569.47;;;19.13;69.62
43804;BME280;29430;52.924;-2.388;2022-09-09T16:45:21;98580.03;;;18.92;70.38
43804;BME280;29430;52.924;-2.388;2022-09-09T16:50:13;98583.94;;;18.67;69.48
43804;BME280;29430;52.924;-2.388;2022-09-09T16:55:05;98585.84;;;18.34;70.33
43804;BME280;29430;52.924;-2.388;2022-09-09T16:59:57;98586.19;;;18.08;70.44
43804;BME280;29430;52.924;-2.388;2022-09-09T17:04:50;98592.34;;;18.00;71.19
43804;BME280;29430;52.924;-2.388;2022-09-09T17:09:42;98597.25;;;18.03;70.95
43804;BME280;29430;52.924;-2.388;2022-09-09T17:14:34;98595.03;;;18.05;71.10
43804;BME280;29430;52.924;-2.388;2022-09-09T17:19:25;98602.28;;;17.96;70.89
43804;BME280;29430;52.924;-2.388;2022-09-09T17:24:17;98602.06;;;17.87;71.63
43804;BME280;29430;52.924;-2.388;2022-09-09T17:29:09;98610.59;;;17.85;71.30
43804;BME280;29430;52.924;-2.388;2022-09-09T17:34:02;98597.16;;;17.84;72.15
43804;BME280;29430;52.924;-2.388;2022-09-09T17:38:57;98610.59;;;17.91;72.34
43804;BME280;29430;52.924;-2.388;2022-09-09T17:43:49;98616.88;;;17.91;72.11
43804;BME280;29430;52.924;-2.388;2022-09-09T17:48:42;98613.63;;;17.89;71.98
43804;BME280;29430;52.924;-2.388;2022-09-09T17:53:38;98622.16;;;17.82;71.76
43804;BME280;29430;52.924;-2.388;2022-09-09T17:58:30;98623.09;;;17.72;71.96
43804;BME280;29430;52.924;-2.388;2022-09-09T18:03:22;98622.31;;;17.67;72.45
43804;BME280;29430;52.924;-2.388;2022-09-09T18:08:13;98621.34;;;17.58;73.21
43804;BME280;29430;52.924;-2.388;2022-09-09T18:13:05;98633.47;;;17.51;74.19
43804;BME280;29430;52.924;-2.388;2022-09-09T18:18:00;98639.00;;;17.46;74.76
43804;BME280;29430;52.924;-2.388;2022-09-09T18:22:56;98639.09;;;17.36;75.10
43804;BME280;29430;52.924;-2.388;2022-09-09T18:27:48;98638.09;;;17.27;75.88
43804;BME280;29430;52.924;-2.388;2022-09-09T18:32:39;98632.44;;;17.18;76.75
43804;BME280;29430;52.924;-2.388;2022-09-09T18:37:31;98644.56;;;17.12;77.53
43804;BME280;29430;52.924;-2.388;2022-09-09T18:42:25;98652.00;;;17.06;78.08
43804;BME280;29430;52.924;-2.388;2022-09-09T18:47:17;98666.31;;;16.98;79.10
43804;BME280;29430;52.924;-2.388;2022-09-09T18:52:09;98672.09;;;16.91;79.38
43804;BME280;29430;52.924;-2.388;2022-09-09T18:57:03;98680.06;;;16.88;80.06
43804;BME280;29430;52.924;-2.388;2022-09-09T19:01:55;98687.19;;;16.83;81.01
43804;BME280;29430;52.924;-2.388;2022-09-09T19:06:48;98688.59;;;16.81;81.29
43804;BME280;29430;52.924;-2.388;2022-09-09T19:11:40;98689.41;;;16.81;81.76
43804;BME280;29430;52.924;-2.388;2022-09-09T19:16:34;98697.09;;;16.79;81.89
43804;BME280;29430;52.924;-2.388;2022-09-09T19:21:28;98706.41;;;16.78;82.21
43804;BME280;29430;52.924;-2.388;2022-09-09T19:26:21;98714.38;;;16.75;82.77
43804;BME280;29430;52.924;-2.388;2022-09-09T19:31:13;98722.03;;;16.73;83.09
43804;BME280;29430;52.924;-2.388;2022-09-09T19:36:09;98725.09;;;16.66;83.74
43804;BME280;29430;52.924;-2.388;2022-09-09T19:41:07;98735.25;;;16.60;84.71
43804;BME280;29430;52.924;-2.388;2022-09-09T19:46:00;98746.22;;;16.55;85.13
43804;BME280;29430;52.924;-2.388;2022-09-09T19:50:53;98739.38;;;16.53;85.51
43804;BME280;29430;52.924;-2.388;2022-09-09T19:55:48;98743.53;;;16.50;86.28
43804;BME280;29430;52.924;-2.388;2022-09-09T20:00:41;98741.06;;;16.43;86.91
43804;BME280;29430;52.924;-2.388;2022-09-09T20:05:33;98761.06;;;16.44;86.78
43804;BME280;29430;52.924;-2.388;2022-09-09T20:10:25;98766.25;;;16.45;87.08
43804;BME280;29430;52.924;-2.388;2022-09-09T20:15:16;98763.25;;;16.42;87.68
43804;BME280;29430;52.924;-2.388;2022-09-09T20:20:08;98760.78;;;16.40;87.85
43804;BME280;29430;52.924;-2.388;2022-09-09T20:25:00;98759.44;;;16.38;88.15
43804;BME280;29430;52.924;-2.388;2022-09-09T20:29:51;98778.31;;;16.39;88.13
43804;BME280;29430;52.924;-2.388;2022-09-09T20:34:43;98780.22;;;16.39;88.11
43804;BME280;29430;52.924;-2.388;2022-09-09T20:39:38;98776.69;;;16.38;88.54
43804;BME280;29430;52.924;-2.388;2022-09-09T20:44:30;98781.06;;;16.39;88.52
43804;BME280;29430;52.924;-2.388;2022-09-09T20:49:22;98790.34;;;16.43;88.20
43804;BME280;29430;52.924;-2.388;2022-09-09T20:54:17;98804.03;;;16.43;88.32
43804;BME280;29430;52.924;-2.388;2022-09-09T20:59:13;98812.78;;;16.40;88.53
43804;BME280;29430;52.924;-2.388;2022-09-09T21:04:05;98824.28;;;16.37;88.89
43804;BME280;29430;52.924;-2.388;2022-09-09T21:08:58;98811.72;;;16.36;88.84
43804;BME280;29430;52.924;-2.388;2022-09-09T21:13:50;98822.13;;;16.39;89.12
43804;BME280;29430;52.924;-2.388;2022-09-09T21:18:41;98822.94;;;16.40;89.05
43804;BME280;29430;52.924;-2.388;2022-09-09T21:23:34;98831.44;;;16.33;88.59
43804;BME280;29430;52.924;-2.388;2022-09-09T21:28:26;98838.00;;;16.22;88.59
43804;BME280;29430;52.924;-2.388;2022-09-09T21:33:19;98856.09;;;16.18;88.45
43804;BME280;29430;52.924;-2.388;2022-09-09T21:38:13;98855.00;;;16.14;88.18
43804;BME280;29430;52.924;-2.388;2022-09-09T21:43:07;98865.38;;;16.06;88.00
43804;BME280;29430;52.924;-2.388;2022-09-09T21:48:03;98858.56;;;15.99;88.05
43804;BME280;29430;52.924;-2.388;2022-09-09T21:52:55;98869.53;;;15.88;88.31
43804;BME280;29430;52.924;-2.388;2022-09-09T21:57:47;98865.16;;;15.77;88.21
43804;BME280;29430;52.924;-2.388;2022-09-09T22:02:40;98874.13;;;15.67;88.88
43804;BME280;29430;52.924;-2.388;2022-09-09T22:07:32;98869.19;;;15.59;89.06
43804;BME280;29430;52.924;-2.388;2022-09-09T22:12:24;98875.22;;;15.51;89.48
43804;BME280;29430;52.924;-2.388;2022-09-09T22:17:15;98876.31;;;15.45;89.67
43804;BME280;29430;52.924;-2.388;2022-09-09T22:22:07;98881.47;;;15.41;90.01
43804;BME280;29430;52.924;-2.388;2022-09-09T22:26:59;98883.38;;;15.40;89.53
43804;BME280;29430;52.924;-2.388;2022-09-09T22:31:51;98890.19;;;15.38;89.71
43804;BME280;29430;52.924;-2.388;2022-09-09T22:36:47;98886.66;;;15.32;89.90
43804;BME280;29430;52.924;-2.388;2022-09-09T22:41:40;98897.56;;;15.27;90.00
43804;BME280;29430;52.924;-2.388;2022-09-09T22:46:32;98900.28;;;15.22;90.11
43804;BME280;29430;52.924;-2.388;2022-09-09T22:51:24;98904.94;;;15.21;90.09
43804;BME280;29430;52.924;-2.388;2022-09-09T22:56:18;98901.34;;;15.16;89.89
43804;BME280;29430;52.924;-2.388;2022-09-09T23:01:15;98907.34;;;15.13;90.00
43804;BME280;29430;52.924;-2.388;2022-09-09T23:06:10;98917.69;;;15.06;90.05
43804;BME280;29430;52.924;-2.388;2022-09-09T23:11:09;98920.41;;;14.95;90.07
43804;BME280;29430;52.924;-2.388;2022-09-09T23:16:09;98923.94;;;14.91;90.86
43804;BME280;29430;52.924;-2.388;2022-09-09T23:21:01;98930.72;;;14.88;90.72
43804;BME280;29430;52.924;-2.388;2022-09-09T23:25:53;98929.06;;;14.82;91.01
43804;BME280;29430;52.924;-2.388;2022-09-09T23:30:46;98929.59;;;14.79;91.24
43804;BME280;29430;52.924;-2.388;2022-09-09T23:35:37;98934.72;;;14.70;91.36
43804;BME280;29430;52.924;-2.388;2022-09-09T23:40:29;98926.25;;;14.66;91.50
43804;BME280;29430;52.924;-2.388;2022-09-09T23:45:22;98917.78;;;14.63;91.31
43804;BME280;29430;52.924;-2.388;2022-09-09T23:50:14;98923.69;;;14.55;91.65
43804;BME280;29430;52.924;-2.388;2022-09-09T23:55:06;98937.03;;;14.51;91.62
43804;BME280;29430;52.924;-2.388;2022-09-09T23:59:59;98938.91;;;14.45;92.20
